Terminal Aerodrome Forecast
Issued by NWS

Home | Current Version | Previous Version | Text Only | Print | Product List | Glossary On
Versions: 1 2 3 4 5 6 7 8 9 10 11 12 13 14
715
FTPA31 PHFO 241138
TAFHKO
TAF
PHKO 241138Z 2412/2512 07006KT P6SM FEW050
     FM242100 24009KT P6SM SCT050
     FM250100 24009KT P6SM BKN050
     FM250700 07006KT P6SM SCT050=

USA.gov is the U.S. government's official web portal to all federal, state and local government web resources and services.